Time;durP1;ratioP1;P1;durP2;ratioP2;P2;SDS_P1;SDS_P2;PMS_P1;PMS_P2;Temp;Humidity;BMP_temperature;BMP_pressure;BME280_temperature;BME280_humidity;BME280_pressure;Samples;Min_cycle;Max_cycle;Signal;HPM_P1;HPM_P2
2022/04/06 00:01:24;;;;;;;5.90;4.13;;;;;;;;;;4938966;29;20031;-71
2022/04/06 00:03:50;;;;;;;9.05;4.22;;;;;;;;;;4951263;29;20038;-72
2022/04/06 00:06:16;;;;;;;11.02;4.13;;;;;;;;;;4951708;29;20026;-71
2022/04/06 00:08:43;;;;;;;5.88;3.72;;;;;;;;;;4955483;29;20038;-71
2022/04/06 00:11:09;;;;;;;12.13;5.95;;;;;;;;;;4952152;29;20030;-71
2022/04/06 00:13:35;;;;;;;9.82;5.10;;;;;;;;;;4951359;29;20038;-71
2022/04/06 00:16:02;;;;;;;6.65;4.00;;;;;;;;;;4951230;29;20035;-71
2022/04/06 00:18:28;;;;;;;7.72;3.42;;;;;;;;;;4950805;29;20035;-71
2022/04/06 00:20:54;;;;;;;5.07;3.65;;;;;;;;;;4953888;29;20030;-71
2022/04/06 00:23:21;;;;;;;4.43;3.08;;;;;;;;;;4953044;29;20039;-72
2022/04/06 00:25:47;;;;;;;6.55;3.30;;;;;;;;;;4951336;29;20023;-70
2022/04/06 00:28:13;;;;;;;5.53;3.13;;;;;;;;;;4950972;29;20038;-71
2022/04/06 00:30:39;;;;;;;6.93;3.78;;;;;;;;;;4949950;28;20030;-71
2022/04/06 00:33:06;;;;;;;5.15;3.08;;;;;;;;;;4951754;29;20023;-71
2022/04/06 00:35:32;;;;;;;4.03;2.60;;;;;;;;;;4954217;29;20050;-71
2022/04/06 00:38:05;;;;;;;4.35;3.00;;;;;;;;;;4951291;29;20068;-71
2022/04/06 00:40:35;;;;;;;5.57;3.50;;;;;;;;;;4950657;29;20020;-71
2022/04/06 00:43:06;;;;;;;3.75;2.40;;;;;;;;;;4950811;29;20050;-71
2022/04/06 00:45:33;;;;;;;5.80;4.05;;;;;;;;;;4950609;29;20031;-72
2022/04/06 00:47:59;;;;;;;5.63;3.30;;;;;;;;;;4952743;29;20034;-71
2022/04/06 00:50:26;;;;;;;4.93;3.53;;;;;;;;;;4953063;29;20034;-72
2022/04/06 00:52:57;;;;;;;5.88;3.65;;;;;;;;;;4951357;29;20089;-72
2022/04/06 00:55:31;;;;;;;6.18;3.70;;;;;;;;;;4950546;29;20027;-70
2022/04/06 00:57:58;;;;;;;4.85;3.80;;;;;;;;;;4950314;29;20053;-71
2022/04/06 01:00:25;;;;;;;7.10;3.67;;;;;;;;;;4950106;29;20026;-71
2022/04/06 01:02:52;;;;;;;6.63;3.88;;;;;;;;;;4949914;29;20050;-71
2022/04/06 01:05:18;;;;;;;5.57;3.35;;;;;;;;;;4951947;29;20023;-71
2022/04/06 01:07:48;;;;;;;6.53;3.72;;;;;;;;;;4954148;29;20027;-71
2022/04/06 01:10:15;;;;;;;7.03;3.75;;;;;;;;;;4950229;29;20031;-72
2022/04/06 01:12:43;;;;;;;6.43;3.67;;;;;;;;;;4950233;29;20495;-71
2022/04/06 01:15:09;;;;;;;7.13;3.72;;;;;;;;;;4950632;29;20024;-72
2022/04/06 01:17:36;;;;;;;7.43;4.13;;;;;;;;;;4953932;29;20046;-71
2022/04/06 01:20:05;;;;;;;7.63;3.80;;;;;;;;;;4950860;29;20037;-72
2022/04/06 01:22:32;;;;;;;6.38;4.10;;;;;;;;;;4949827;29;20538;-71
2022/04/06 01:24:58;;;;;;;5.90;4.00;;;;;;;;;;4950114;29;20031;-72
2022/04/06 01:27:25;;;;;;;7.30;4.30;;;;;;;;;;4949992;29;20040;-72
2022/04/06 01:29:52;;;;;;;8.40;4.25;;;;;;;;;;4952576;29;20099;-72
2022/04/06 01:32:19;;;;;;;7.05;4.18;;;;;;;;;;4951785;29;20027;-71
2022/04/06 01:34:46;;;;;;;11.55;5.20;;;;;;;;;;4953671;29;20023;-71
2022/04/06 01:37:13;;;;;;;8.63;4.53;;;;;;;;;;4949641;29;20043;-71
2022/04/06 01:39:41;;;;;;;7.32;4.55;;;;;;;;;;4942571;29;20031;-72
2022/04/06 01:42:09;;;;;;;7.07;4.35;;;;;;;;;;4950219;28;20484;-71
2022/04/06 01:44:35;;;;;;;6.90;4.28;;;;;;;;;;4953069;29;20084;-71
2022/04/06 01:47:03;;;;;;;9.68;3.97;;;;;;;;;;4950332;29;20031;-71
2022/04/06 01:52:15;;;;;;;6.78;4.35;;;;;;;;;;4949324;29;20028;-71
2022/04/06 01:54:49;;;;;;;8.00;5.32;;;;;;;;;;4949582;29;20026;-71
2022/04/06 01:57:15;;;;;;;7.65;4.72;;;;;;;;;;4949283;29;20027;-72
2022/04/06 01:59:42;;;;;;;5.70;4.20;;;;;;;;;;4953646;29;20015;-72
2022/04/06 02:02:11;;;;;;;7.05;4.10;;;;;;;;;;4949965;29;20053;-71
2022/04/06 02:04:38;;;;;;;7.30;3.95;;;;;;;;;;4949549;29;20027;-72
2022/04/06 02:07:04;;;;;;;7.05;4.28;;;;;;;;;;4937740;29;20035;-72
2022/04/06 02:09:31;;;;;;;6.57;4.10;;;;;;;;;;4949187;29;20034;-72
2022/04/06 02:11:58;;;;;;;8.75;4.10;;;;;;;;;;4951589;29;20034;-72
2022/04/06 02:14:26;;;;;;;9.18;4.40;;;;;;;;;;4951286;29;20031;-72
2022/04/06 02:16:53;;;;;;;9.23;4.53;;;;;;;;;;4953778;29;20039;-71
2022/04/06 02:19:19;;;;;;;6.00;4.05;;;;;;;;;;4949447;29;20035;-72
2022/04/06 02:21:46;;;;;;;6.55;4.10;;;;;;;;;;4948929;29;20381;-71
2022/04/06 02:24:12;;;;;;;6.28;3.90;;;;;;;;;;4949430;29;20400;-71
2022/04/06 02:26:38;;;;;;;6.30;3.92;;;;;;;;;;4952846;29;20076;-72
2022/04/06 02:29:05;;;;;;;7.13;3.55;;;;;;;;;;4949229;29;20042;-72
2022/04/06 02:31:32;;;;;;;5.90;3.40;;;;;;;;;;4948954;29;20037;-71
2022/04/06 02:33:59;;;;;;;5.50;3.92;;;;;;;;;;4948861;29;20061;-71
2022/04/06 02:36:25;;;;;;;7.72;4.38;;;;;;;;;;4948893;29;20023;-71
2022/04/06 02:38:51;;;;;;;4.93;3.58;;;;;;;;;;4951934;29;20035;-72
2022/04/06 02:41:19;;;;;;;5.85;3.63;;;;;;;;;;4947269;29;20035;-71
2022/04/06 02:43:45;;;;;;;5.00;3.60;;;;;;;;;;4952898;29;20062;-71
2022/04/06 02:46:12;;;;;;;6.03;3.50;;;;;;;;;;4948935;29;20039;-71
2022/04/06 02:48:38;;;;;;;5.60;3.65;;;;;;;;;;4949090;29;20019;-72
2022/04/06 02:51:04;;;;;;;6.13;3.70;;;;;;;;;;4950058;29;20408;-72
2022/04/06 02:53:30;;;;;;;5.45;3.97;;;;;;;;;;4951908;28;20559;-71
2022/04/06 02:55:57;;;;;;;5.03;3.65;;;;;;;;;;4952827;29;20480;-72
2022/04/06 02:58:23;;;;;;;5.80;3.53;;;;;;;;;;4952564;29;20049;-71
2022/04/06 03:00:49;;;;;;;4.10;3.15;;;;;;;;;;4952654;29;20378;-71
2022/04/06 03:03:16;;;;;;;4.15;3.00;;;;;;;;;;4945024;29;20031;-72
2022/04/06 03:05:42;;;;;;;7.05;3.78;;;;;;;;;;4956720;29;20012;-72
2022/04/06 03:08:09;;;;;;;4.75;3.45;;;;;;;;;;4953367;29;20049;-71
2022/04/06 03:10:35;;;;;;;10.10;3.60;;;;;;;;;;4952262;29;20029;-72
2022/04/06 03:13:01;;;;;;;5.95;3.45;;;;;;;;;;4952477;29;20526;-71
2022/04/06 03:15:28;;;;;;;5.70;3.60;;;;;;;;;;4952216;29;20032;-71
2022/04/06 03:17:54;;;;;;;6.60;4.10;;;;;;;;;;4954705;29;20038;-72
2022/04/06 03:20:20;;;;;;;6.72;3.80;;;;;;;;;;4954370;29;20023;-72
2022/04/06 03:22:47;;;;;;;8.38;3.83;;;;;;;;;;4952690;29;20023;-71
2022/04/06 03:25:13;;;;;;;4.85;3.83;;;;;;;;;;4941413;29;20408;-71
2022/04/06 03:27:39;;;;;;;6.45;4.32;;;;;;;;;;4952217;29;20039;-71
2022/04/06 03:30:07;;;;;;;5.22;3.80;;;;;;;;;;4953361;29;20027;-71
2022/04/06 03:32:33;;;;;;;5.15;3.70;;;;;;;;;;4955652;29;20045;-71
2022/04/06 03:35:00;;;;;;;6.03;3.70;;;;;;;;;;4952627;29;20019;-71
2022/04/06 03:37:26;;;;;;;5.85;3.25;;;;;;;;;;4951885;29;20493;-71
2022/04/06 03:39:52;;;;;;;4.97;3.55;;;;;;;;;;4943950;29;20039;-71
2022/04/06 03:42:19;;;;;;;7.32;3.70;;;;;;;;;;4941993;29;20031;-71
2022/04/06 03:44:45;;;;;;;7.38;3.70;;;;;;;;;;4955681;29;20024;-71
2022/04/06 03:47:11;;;;;;;6.93;3.10;;;;;;;;;;4953149;29;20035;-71
2022/04/06 03:49:37;;;;;;;4.70;3.30;;;;;;;;;;4956151;29;20027;-71
2022/04/06 03:52:04;;;;;;;4.18;3.67;;;;;;;;;;4951588;29;20053;-71
2022/04/06 03:54:30;;;;;;;8.00;5.45;;;;;;;;;;4951422;29;20024;-71
2022/04/06 03:56:57;;;;;;;7.72;4.40;;;;;;;;;;4953820;29;20492;-71
2022/04/06 03:59:23;;;;;;;9.27;4.75;;;;;;;;;;4952889;29;20035;-71
2022/04/06 04:01:49;;;;;;;6.75;4.45;;;;;;;;;;4951863;29;20049;-72
2022/04/06 04:04:16;;;;;;;8.68;3.72;;;;;;;;;;4951568;29;20399;-71
2022/04/06 04:06:42;;;;;;;7.57;3.88;;;;;;;;;;4951344;28;20031;-70
2022/04/06 04:09:09;;;;;;;4.75;3.42;;;;;;;;;;4951627;29;20031;-72
2022/04/06 04:11:35;;;;;;;7.55;3.97;;;;;;;;;;4955286;29;20012;-72
2022/04/06 04:14:02;;;;;;;6.35;3.80;;;;;;;;;;4951770;29;20479;-71
2022/04/06 04:16:28;;;;;;;5.70;4.07;;;;;;;;;;4951176;29;20023;-71
2022/04/06 04:18:54;;;;;;;7.03;4.90;;;;;;;;;;4951082;29;20035;-71
2022/04/06 04:21:33;;;;;;;7.95;4.60;;;;;;;;;;4951126;29;20035;-72
2022/04/06 04:24:03;;;;;;;11.80;7.78;;;;;;;;;;4952782;29;20027;-72
2022/04/06 04:26:30;;;;;;;11.48;5.75;;;;;;;;;;4954144;29;20054;-72
2022/04/06 04:28:56;;;;;;;8.60;4.30;;;;;;;;;;4951547;29;20034;-71
2022/04/06 04:31:23;;;;;;;6.63;4.13;;;;;;;;;;4950882;29;20038;-71
2022/04/06 04:33:49;;;;;;;5.90;4.15;;;;;;;;;;4951276;29;20027;-71
2022/04/06 04:36:16;;;;;;;5.47;3.50;;;;;;;;;;4950962;29;20028;-71
2022/04/06 04:38:43;;;;;;;5.45;3.75;;;;;;;;;;4954600;29;20047;-71
2022/04/06 04:41:09;;;;;;;7.22;3.60;;;;;;;;;;4951955;29;20034;-71
2022/04/06 04:43:36;;;;;;;5.30;3.42;;;;;;;;;;4950982;29;20031;-71
2022/04/06 04:46:03;;;;;;;5.28;3.60;;;;;;;;;;4950713;29;20029;-71
2022/04/06 04:48:30;;;;;;;5.78;4.13;;;;;;;;;;4950578;29;20481;-71
2022/04/06 04:50:56;;;;;;;5.85;4.55;;;;;;;;;;4953364;29;20048;-71
2022/04/06 04:53:22;;;;;;;7.47;4.63;;;;;;;;;;4952417;29;20035;-71
2022/04/06 04:55:49;;;;;;;6.90;4.25;;;;;;;;;;4950741;29;20019;-72
2022/04/06 04:58:15;;;;;;;7.35;4.60;;;;;;;;;;4950416;29;20045;-70
2022/04/06 05:00:42;;;;;;;7.32;4.68;;;;;;;;;;4950422;29;20407;-71
2022/04/06 05:03:08;;;;;;;6.75;3.92;;;;;;;;;;4951210;29;20515;-72
2022/04/06 05:05:39;;;;;;;6.20;4.13;;;;;;;;;;4954152;29;20023;-71
2022/04/06 05:08:06;;;;;;;6.72;4.72;;;;;;;;;;4950438;29;20058;-72
2022/04/06 05:10:33;;;;;;;6.75;4.60;;;;;;;;;;4950116;29;20035;-72
2022/04/06 05:12:59;;;;;;;6.80;4.10;;;;;;;;;;4950322;29;20035;-71
2022/04/06 05:15:25;;;;;;;5.90;4.10;;;;;;;;;;4950352;29;20214;-71
2022/04/06 05:17:52;;;;;;;7.40;4.20;;;;;;;;;;4952290;28;20053;-71
2022/04/06 05:20:18;;;;;;;7.30;4.03;;;;;;;;;;4951728;29;20023;-71
2022/04/06 05:22:44;;;;;;;6.72;4.30;;;;;;;;;;4950123;29;20031;-71
2022/04/06 05:25:11;;;;;;;7.43;4.72;;;;;;;;;;4949892;29;20395;-71
2022/04/06 05:27:50;;;;;;;11.65;7.03;;;;;;;;;;4942139;29;20047;-72
2022/04/06 05:30:19;;;;;;;13.00;7.15;;;;;;;;;;4949785;29;20047;-71
2022/04/06 05:32:46;;;;;;;13.10;6.95;;;;;;;;;;4953573;29;20477;-71
2022/04/06 05:35:13;;;;;;;9.30;5.05;;;;;;;;;;4950870;29;20053;-71
2022/04/06 05:37:40;;;;;;;6.03;4.38;;;;;;;;;;4949771;29;20041;-71
2022/04/06 05:40:07;;;;;;;9.35;5.40;;;;;;;;;;4936719;29;20033;-72
2022/04/06 05:42:33;;;;;;;11.43;5.47;;;;;;;;;;4949673;29;20027;-71
2022/04/06 05:45:00;;;;;;;7.50;5.35;;;;;;;;;;4951688;29;20023;-71
2022/04/06 05:47:26;;;;;;;7.15;4.55;;;;;;;;;;4952270;29;20026;-71
2022/04/06 05:49:53;;;;;;;11.50;5.93;;;;;;;;;;4949615;29;20408;-71
2022/04/06 05:52:19;;;;;;;13.95;6.80;;;;;;;;;;4949425;29;20485;-71
2022/04/06 05:54:46;;;;;;;32.72;16.98;;;;;;;;;;4949338;29;20039;-72
2022/04/06 05:57:12;;;;;;;22.77;12.40;;;;;;;;;;4949952;29;20019;-71
2022/04/06 05:59:40;;;;;;;26.08;12.65;;;;;;;;;;4953582;29;20115;-71
2022/04/06 06:02:09;;;;;;;29.45;14.18;;;;;;;;;;4950137;29;20024;-72
2022/04/06 06:04:38;;;;;;;23.60;12.98;;;;;;;;;;4948971;29;20404;-72
2022/04/06 06:07:08;;;;;;;22.50;11.80;;;;;;;;;;4946940;29;20033;-71
2022/04/06 06:09:35;;;;;;;16.25;9.68;;;;;;;;;;4951311;29;20039;-73
2022/04/06 06:12:02;;;;;;;16.85;7.70;;;;;;;;;;4950301;29;20425;-71
2022/04/06 06:14:28;;;;;;;24.55;12.25;;;;;;;;;;4948974;29;20027;-72
2022/04/06 06:16:54;;;;;;;25.58;15.80;;;;;;;;;;4961048;28;20035;-71
2022/04/06 06:19:21;;;;;;;13.13;7.47;;;;;;;;;;4946664;28;20089;-71
2022/04/06 06:21:47;;;;;;;11.85;7.10;;;;;;;;;;4958537;28;20023;-71
2022/04/06 06:24:14;;;;;;;9.45;6.25;;;;;;;;;;4937027;29;20050;-72
2022/04/06 06:26:44;;;;;;;21.65;8.73;;;;;;;;;;4949249;29;20510;-71
2022/04/06 06:29:11;;;;;;;11.23;6.60;;;;;;;;;;4949379;28;20039;-71
2022/04/06 06:31:38;;;;;;;9.23;4.95;;;;;;;;;;4952901;29;20539;-71
2022/04/06 06:34:04;;;;;;;10.70;4.63;;;;;;;;;;4945508;29;20043;-70
2022/04/06 06:36:30;;;;;;;8.70;5.07;;;;;;;;;;4947708;29;20028;-71
2022/04/06 06:38:57;;;;;;;6.78;4.28;;;;;;;;;;4951463;29;20042;-71
2022/04/06 06:41:23;;;;;;;10.10;4.80;;;;;;;;;;4951959;29;20366;-71
2022/04/06 06:43:50;;;;;;;9.65;5.93;;;;;;;;;;4951675;29;20053;-71
2022/04/06 06:46:17;;;;;;;6.95;5.00;;;;;;;;;;4949777;29;20033;-71
2022/04/06 06:48:44;;;;;;;8.65;4.20;;;;;;;;;;4934821;29;20027;-71
2022/04/06 06:51:10;;;;;;;9.07;4.82;;;;;;;;;;4949496;29;20468;-71
2022/04/06 06:53:36;;;;;;;11.00;4.22;;;;;;;;;;4961376;28;20033;-71
2022/04/06 06:56:03;;;;;;;11.00;4.80;;;;;;;;;;4948817;29;20031;-71
2022/04/06 06:58:29;;;;;;;6.35;4.50;;;;;;;;;;4949011;29;20042;-71
2022/04/06 07:00:56;;;;;;;8.93;4.28;;;;;;;;;;4948187;28;20028;-71
2022/04/06 07:03:22;;;;;;;8.63;4.05;;;;;;;;;;4934940;29;20032;-71
2022/04/06 07:05:48;;;;;;;7.75;3.72;;;;;;;;;;4941124;29;20031;-72
2022/04/06 07:08:15;;;;;;;11.63;4.93;;;;;;;;;;4949336;29;20053;-71
2022/04/06 07:10:45;;;;;;;9.82;3.60;;;;;;;;;;4951538;29;20043;-72
2022/04/06 07:13:12;;;;;;;7.35;5.18;;;;;;;;;;4947861;29;20023;-71
2022/04/06 07:15:39;;;;;;;6.03;4.25;;;;;;;;;;4944051;29;20042;-72
2022/04/06 07:18:07;;;;;;;8.65;4.35;;;;;;;;;;4948803;29;20039;-71
2022/04/06 07:20:35;;;;;;;5.47;3.90;;;;;;;;;;4950582;29;20057;-72
2022/04/06 07:23:05;;;;;;;11.75;4.10;;;;;;;;;;4948159;29;20029;-71
2022/04/06 07:25:32;;;;;;;7.63;3.72;;;;;;;;;;4947816;29;20031;-72
2022/04/06 07:27:58;;;;;;;5.55;3.95;;;;;;;;;;4939545;29;20532;-72
2022/04/06 07:30:25;;;;;;;8.55;4.30;;;;;;;;;;4947011;29;20165;-71
2022/04/06 07:32:51;;;;;;;7.50;4.25;;;;;;;;;;4963815;28;20451;-71
2022/04/06 07:35:18;;;;;;;7.20;4.10;;;;;;;;;;4950615;28;20038;-71
2022/04/06 07:37:47;;;;;;;7.32;4.05;;;;;;;;;;4950445;29;20033;-70
2022/04/06 07:40:14;;;;;;;8.00;3.75;;;;;;;;;;4951924;28;20030;-71
2022/04/06 07:42:41;;;;;;;12.10;4.20;;;;;;;;;;4958507;28;20027;-71
2022/04/06 07:45:09;;;;;;;9.60;4.40;;;;;;;;;;4963835;28;20019;-71
2022/04/06 07:47:35;;;;;;;6.25;4.10;;;;;;;;;;4966161;28;20035;-71
2022/04/06 07:50:03;;;;;;;5.72;3.67;;;;;;;;;;4955292;29;20035;-71
2022/04/06 07:52:30;;;;;;;5.80;3.85;;;;;;;;;;4953553;29;20032;-71
2022/04/06 07:54:56;;;;;;;7.90;3.97;;;;;;;;;;4953621;28;20732;-71
2022/04/06 07:57:25;;;;;;;6.15;3.70;;;;;;;;;;4960111;28;20026;-70
2022/04/06 07:59:52;;;;;;;10.18;4.35;;;;;;;;;;4962198;28;20035;-72
2022/04/06 08:02:19;;;;;;;10.93;3.83;;;;;;;;;;4954580;29;20016;-72
2022/04/06 08:04:45;;;;;;;7.60;3.50;;;;;;;;;;4954262;29;20046;-71
2022/04/06 08:07:11;;;;;;;8.70;4.20;;;;;;;;;;4952044;29;20408;-72
2022/04/06 08:09:38;;;;;;;7.03;3.60;;;;;;;;;;4951802;28;20030;-72
2022/04/06 08:12:05;;;;;;;8.98;3.97;;;;;;;;;;4956630;28;20038;-70
2022/04/06 08:14:31;;;;;;;7.00;4.47;;;;;;;;;;4966629;28;20034;-72
2022/04/06 08:16:58;;;;;;;5.60;4.43;;;;;;;;;;4939026;29;20039;-71
2022/04/06 08:19:25;;;;;;;6.25;4.13;;;;;;;;;;4950840;29;20063;-71
2022/04/06 08:21:51;;;;;;;7.65;4.80;;;;;;;;;;4952909;28;20031;-71
2022/04/06 08:24:18;;;;;;;11.77;4.78;;;;;;;;;;4964261;28;20031;-72
2022/04/06 08:26:45;;;;;;;6.75;4.63;;;;;;;;;;4951978;29;20062;-72
2022/04/06 08:29:12;;;;;;;5.85;4.25;;;;;;;;;;4950902;29;20514;-72
2022/04/06 08:31:39;;;;;;;5.93;3.92;;;;;;;;;;4954170;29;20027;-72
2022/04/06 08:34:06;;;;;;;14.48;4.32;;;;;;;;;;4949623;29;20041;-72
2022/04/06 08:36:32;;;;;;;4.43;3.50;;;;;;;;;;4949337;29;20083;-73
2022/04/06 08:39:01;;;;;;;7.28;4.50;;;;;;;;;;4950534;29;20043;-72
2022/04/06 08:41:28;;;;;;;6.40;4.00;;;;;;;;;;4951930;29;20081;-73
2022/04/06 08:43:56;;;;;;;11.45;4.53;;;;;;;;;;4948999;29;20034;-73
2022/04/06 08:46:22;;;;;;;5.90;3.95;;;;;;;;;;4948127;29;20023;-72
2022/04/06 08:48:49;;;;;;;6.88;4.20;;;;;;;;;;4949880;28;20031;-73
2022/04/06 08:51:17;;;;;;;16.45;4.15;;;;;;;;;;4943481;29;20027;-72
2022/04/06 08:53:44;;;;;;;8.10;4.90;;;;;;;;;;4953843;29;20031;-73
2022/04/06 08:56:13;;;;;;;11.50;4.85;;;;;;;;;;4954401;29;20405;-73
2022/04/06 08:58:40;;;;;;;9.77;4.60;;;;;;;;;;4953617;29;20496;-73
2022/04/06 09:01:07;;;;;;;10.05;5.18;;;;;;;;;;4955734;28;20026;-72
2022/04/06 09:03:33;;;;;;;8.10;4.72;;;;;;;;;;4938491;29;20037;-72
2022/04/06 09:06:06;;;;;;;8.38;4.85;;;;;;;;;;4963416;28;20411;-73
2022/04/06 09:08:39;;;;;;;10.45;5.35;;;;;;;;;;4964081;28;20393;-72
2022/04/06 09:11:10;;;;;;;21.60;5.18;;;;;;;;;;4953859;29;20391;-72
2022/04/06 09:13:37;;;;;;;8.70;5.45;;;;;;;;;;4949335;29;20069;-73
2022/04/06 09:16:04;;;;;;;16.83;4.30;;;;;;;;;;4953033;29;20048;-73
2022/04/06 09:18:34;;;;;;;13.30;5.22;;;;;;;;;;4949139;29;20032;-72
2022/04/06 09:21:01;;;;;;;8.38;5.13;;;;;;;;;;4950799;29;20049;-72
2022/04/06 09:23:30;;;;;;;7.07;4.90;;;;;;;;;;4952718;29;20101;-72
2022/04/06 09:26:01;;;;;;;8.50;4.63;;;;;;;;;;4951729;29;20029;-73
2022/04/06 09:28:27;;;;;;;11.60;4.95;;;;;;;;;;4950544;29;20526;-72
2022/04/06 09:30:54;;;;;;;7.63;4.80;;;;;;;;;;4942192;29;20031;-72
2022/04/06 09:33:21;;;;;;;6.78;5.00;;;;;;;;;;4948814;29;20027;-72
2022/04/06 09:35:48;;;;;;;7.40;4.25;;;;;;;;;;4952570;29;20054;-72
2022/04/06 09:38:20;;;;;;;8.65;5.15;;;;;;;;;;4949853;29;20035;-72
2022/04/06 09:40:46;;;;;;;7.00;4.40;;;;;;;;;;4952505;29;20019;-71
2022/04/06 09:43:26;;;;;;;6.35;4.60;;;;;;;;;;4948601;29;20035;-71
2022/04/06 09:48:57;;;;;;;8.35;4.68;;;;;;;;;;4956584;28;20020;-71
2022/04/06 09:51:27;;;;;;;9.50;5.00;;;;;;;;;;4948740;29;20050;-72
2022/04/06 09:53:54;;;;;;;7.30;5.55;;;;;;;;;;4952435;29;20020;-72
2022/04/06 09:56:21;;;;;;;6.53;5.05;;;;;;;;;;4941318;29;20523;-72
2022/04/06 09:58:49;;;;;;;7.45;4.40;;;;;;;;;;4948735;29;20038;-72
2022/04/06 10:01:17;;;;;;;6.30;4.68;;;;;;;;;;4947183;29;20027;-71
2022/04/06 10:03:50;;;;;;;7.90;4.57;;;;;;;;;;4950357;28;20030;-72
2022/04/06 10:06:17;;;;;;;7.45;4.50;;;;;;;;;;4948803;29;20033;-80
2022/04/06 10:08:44;;;;;;;7.93;4.75;;;;;;;;;;4927040;29;20420;-78
2022/04/06 10:11:11;;;;;;;6.60;4.57;;;;;;;;;;4943017;29;20028;-78
2022/04/06 10:13:39;;;;;;;8.40;4.88;;;;;;;;;;4943477;29;20029;-78
2022/04/06 10:16:10;;;;;;;11.15;4.68;;;;;;;;;;4944761;29;20032;-78
2022/04/06 10:18:36;;;;;;;;;;;;;;;;;;4951505;29;20067;-78
2022/04/06 10:21:22;;;;;;;11.23;4.88;;;;;;;;;;4950560;29;19917;-78
2022/04/06 10:23:54;;;;;;;7.18;4.35;;;;;;;;;;4951607;29;20428;-78
2022/04/06 10:26:21;;;;;;;5.63;4.30;;;;;;;;;;4949762;29;20035;-78
2022/04/06 10:28:51;;;;;;;6.63;4.40;;;;;;;;;;4948735;29;20035;-78
2022/04/06 10:31:19;;;;;;;10.45;4.40;;;;;;;;;;4948449;29;20038;-78
2022/04/06 10:33:49;;;;;;;6.85;3.67;;;;;;;;;;4948551;29;20039;-78
2022/04/06 10:36:19;;;;;;;9.57;3.65;;;;;;;;;;4948591;29;20534;-78
2022/04/06 10:39:08;;;;;;;3.88;3.05;;;;;;;;;;4937004;29;20039;-79
2022/04/06 10:41:38;;;;;;;7.40;3.25;;;;;;;;;;4951832;29;20027;-78
2022/04/06 10:44:04;;;;;;;6.38;3.30;;;;;;;;;;4948963;29;20031;-78
2022/04/06 10:46:34;;;;;;;5.85;3.30;;;;;;;;;;4947996;29;20035;-78
2022/04/06 10:49:14;;;;;;;4.65;3.55;;;;;;;;;;4947898;29;20027;-78
2022/04/06 10:51:42;;;;;;;7.07;3.55;;;;;;;;;;4947435;29;20027;-78
2022/04/06 10:54:14;;;;;;;6.22;4.10;;;;;;;;;;4949207;29;20082;-78
2022/04/06 10:56:50;;;;;;;5.13;3.50;;;;;;;;;;4948572;29;20035;-78
2022/04/06 10:59:17;;;;;;;5.13;3.55;;;;;;;;;;4952037;29;20038;-78
2022/04/06 11:01:48;;;;;;;6.80;4.57;;;;;;;;;;4948301;29;20392;-76
2022/04/06 11:04:14;;;;;;;;;;;;;;;;;;4948693;29;20031;-77
2022/04/06 11:06:52;;;;;;;13.23;7.72;;;;;;;;;;4948201;29;19910;-77
2022/04/06 11:12:09;;;;;;;7.20;3.35;;;;;;;;;;4948419;29;20031;-79
2022/04/06 11:14:35;;;;;;;5.82;4.30;;;;;;;;;;4951861;28;20034;-77
2022/04/06 11:17:02;;;;;;;3.72;3.30;;;;;;;;;;4952804;29;20024;-77
2022/04/06 11:19:29;;;;;;;4.00;3.60;;;;;;;;;;4951774;29;20652;-78
2022/04/06 11:21:56;;;;;;;4.60;3.55;;;;;;;;;;4950554;29;20019;-77
2022/04/06 11:24:27;;;;;;;6.50;3.22;;;;;;;;;;4950494;29;20023;-77
2022/04/06 11:26:54;;;;;;;5.15;4.03;;;;;;;;;;4953824;29;20404;-77
2022/04/06 11:29:25;;;;;;;5.53;3.30;;;;;;;;;;4951793;29;20020;-78
2022/04/06 11:31:52;;;;;;;4.55;3.10;;;;;;;;;;4955986;29;20027;-77
2022/04/06 11:34:35;;;;;;;4.95;3.40;;;;;;;;;;4951678;29;20019;-76
2022/04/06 11:37:02;;;;;;;8.38;3.83;;;;;;;;;;4951773;29;20031;-77
2022/04/06 11:39:30;;;;;;;4.30;3.42;;;;;;;;;;4951036;29;20028;-77
2022/04/06 11:41:57;;;;;;;4.95;3.72;;;;;;;;;;4954124;29;20031;-76
2022/04/06 11:44:25;;;;;;;6.15;3.50;;;;;;;;;;4953342;29;20523;-77
2022/04/06 11:46:52;;;;;;;4.88;3.67;;;;;;;;;;4951876;29;20023;-78
2022/04/06 11:49:26;;;;;;;4.82;3.45;;;;;;;;;;4951323;29;20562;-77
2022/04/06 11:51:53;;;;;;;5.55;3.80;;;;;;;;;;4951343;29;20027;-78
2022/04/06 11:54:19;;;;;;;8.75;3.50;;;;;;;;;;4951137;29;20042;-76
2022/04/06 11:56:49;;;;;;;5.63;3.67;;;;;;;;;;4953380;29;20489;-77
2022/04/06 11:59:18;;;;;;;4.17;3.10;;;;;;;;;;4951563;29;20047;-78
2022/04/06 12:01:46;;;;;;;5.25;3.33;;;;;;;;;;4951046;29;20027;-77
2022/04/06 12:04:13;;;;;;;8.15;3.03;;;;;;;;;;4950677;29;20031;-77
2022/04/06 12:06:39;;;;;;;4.25;3.20;;;;;;;;;;4951108;29;20033;-77
2022/04/06 12:09:06;;;;;;;12.90;3.47;;;;;;;;;;4951901;29;20024;-77
2022/04/06 12:11:33;;;;;;;4.95;3.17;;;;;;;;;;4953900;29;20101;-77
2022/04/06 12:14:00;;;;;;;8.55;4.13;;;;;;;;;;4951253;29;20511;-77
2022/04/06 12:16:27;;;;;;;10.35;6.13;;;;;;;;;;4950942;29;20037;-77
2022/04/06 12:18:53;;;;;;;35.15;3.72;;;;;;;;;;4950728;29;20522;-76
2022/04/06 12:21:23;;;;;;;7.40;3.75;;;;;;;;;;4950499;29;20024;-76
2022/04/06 12:23:51;;;;;;;4.20;2.95;;;;;;;;;;4954185;29;20038;-77
2022/04/06 12:26:18;;;;;;;3.30;2.38;;;;;;;;;;4952103;28;20047;-76
2022/04/06 12:29:11;;;;;;;13.05;2.90;;;;;;;;;;4950944;29;20035;-76
2022/04/06 12:31:38;;;;;;;5.45;3.40;;;;;;;;;;4946997;29;20040;-76
2022/04/06 12:34:05;;;;;;;4.20;3.28;;;;;;;;;;4950660;29;20082;-77
2022/04/06 12:36:32;;;;;;;5.53;3.20;;;;;;;;;;4950278;29;20023;-76
2022/04/06 12:39:01;;;;;;;7.22;3.92;;;;;;;;;;4953064;29;20039;-76
2022/04/06 12:41:31;;;;;;;6.80;4.50;;;;;;;;;;4952605;29;20583;-78
2022/04/06 12:43:59;;;;;;;8.33;4.43;;;;;;;;;;4953525;29;20035;-77
2022/04/06 12:46:37;;;;;;;7.90;4.40;;;;;;;;;;4950320;29;20043;-76
2022/04/06 12:49:18;;;;;;;15.05;5.10;;;;;;;;;;4950159;29;20037;-76
2022/04/06 12:51:45;;;;;;;9.07;4.55;;;;;;;;;;4953900;29;20019;-76
2022/04/06 12:54:12;;;;;;;7.88;5.07;;;;;;;;;;4951314;29;20034;-77
2022/04/06 12:56:39;;;;;;;6.90;4.38;;;;;;;;;;4953920;29;20065;-76
2022/04/06 12:59:06;;;;;;;7.07;4.97;;;;;;;;;;4950746;29;20102;-76
2022/04/06 13:01:32;;;;;;;11.32;4.80;;;;;;;;;;4950345;29;20021;-77
2022/04/06 13:03:59;;;;;;;6.78;4.18;;;;;;;;;;4950001;29;20031;-76
2022/04/06 13:06:25;;;;;;;6.03;4.28;;;;;;;;;;4949408;29;20095;-77
2022/04/06 13:08:52;;;;;;;8.00;3.78;;;;;;;;;;4953339;29;20053;-76
2022/04/06 13:11:19;;;;;;;5.95;4.20;;;;;;;;;;4951113;29;20054;-77
2022/04/06 13:13:45;;;;;;;8.35;5.00;;;;;;;;;;4949719;29;20477;-77
2022/04/06 13:16:11;;;;;;;9.10;5.78;;;;;;;;;;4938305;29;20015;-78
2022/04/06 13:18:38;;;;;;;7.38;4.78;;;;;;;;;;4949620;29;20039;-78
2022/04/06 13:21:04;;;;;;;5.40;4.00;;;;;;;;;;4951070;29;20030;-78
2022/04/06 13:23:30;;;;;;;8.85;5.32;;;;;;;;;;4952551;29;20024;-76
2022/04/06 13:25:57;;;;;;;8.63;4.47;;;;;;;;;;4951845;29;20041;-77
2022/04/06 13:28:23;;;;;;;5.07;3.90;;;;;;;;;;4948432;29;20042;-77
2022/04/06 13:30:51;;;;;;;6.78;3.60;;;;;;;;;;4948106;29;20043;-77
2022/04/06 13:33:19;;;;;;;4.93;3.47;;;;;;;;;;4949052;29;20030;-76
2022/04/06 13:35:49;;;;;;;4.72;3.58;;;;;;;;;;4953049;29;20019;-76
2022/04/06 13:38:15;;;;;;;9.02;4.05;;;;;;;;;;4949772;28;20031;-77
2022/04/06 13:40:41;;;;;;;5.53;3.65;;;;;;;;;;4951909;29;20034;-76
2022/04/06 13:43:08;;;;;;;5.65;3.75;;;;;;;;;;4952757;29;20023;-77
2022/04/06 13:45:34;;;;;;;4.15;3.72;;;;;;;;;;4951248;29;20025;-76
2022/04/06 13:48:01;;;;;;;7.32;4.40;;;;;;;;;;4951378;29;20392;-76
2022/04/06 13:50:27;;;;;;;6.80;4.13;;;;;;;;;;4952726;29;20476;-77
2022/04/06 13:52:53;;;;;;;12.15;6.00;;;;;;;;;;4949122;29;20019;-77
2022/04/06 13:55:21;;;;;;;10.05;6.35;;;;;;;;;;4948579;29;20039;-78
2022/04/06 13:57:48;;;;;;;8.05;4.47;;;;;;;;;;4924857;29;20026;-76
2022/04/06 14:00:15;;;;;;;5.40;3.83;;;;;;;;;;4948759;29;20586;-77
2022/04/06 14:02:42;;;;;;;5.10;3.65;;;;;;;;;;4951547;29;20039;-78
2022/04/06 14:05:08;;;;;;;6.82;4.05;;;;;;;;;;4948998;29;20037;-76
2022/04/06 14:07:35;;;;;;;5.93;4.05;;;;;;;;;;4948843;29;20031;-76
2022/04/06 14:10:02;;;;;;;5.80;3.80;;;;;;;;;;4948173;29;20027;-76
2022/04/06 14:12:28;;;;;;;7.03;3.80;;;;;;;;;;4931789;29;20038;-77
2022/04/06 14:14:54;;;;;;;5.07;4.07;;;;;;;;;;4951870;29;20405;-77
2022/04/06 14:17:21;;;;;;;7.28;4.60;;;;;;;;;;4949757;29;20035;-78
2022/04/06 14:19:47;;;;;;;10.32;4.80;;;;;;;;;;4952271;29;20039;-77
2022/04/06 14:22:13;;;;;;;10.85;4.82;;;;;;;;;;4948696;29;20551;-76
2022/04/06 14:25:15;;;;;;;6.80;5.00;;;;;;;;;;4948533;29;20031;-77
2022/04/06 14:27:26;;;;;;;3.75;2.78;;;;;;;;;;4947365;28;20044;-76
2022/04/06 14:29:53;;;;;;;3.30;2.80;;;;;;;;;;4951213;29;20023;-77
2022/04/06 14:32:21;;;;;;;4.28;2.83;;;;;;;;;;4949520;29;20039;-76
2022/04/06 14:34:47;;;;;;;4.38;2.72;;;;;;;;;;4953085;29;20400;-77
2022/04/06 14:37:13;;;;;;;3.47;2.63;;;;;;;;;;4948292;29;20029;-77
2022/04/06 14:39:40;;;;;;;3.30;2.45;;;;;;;;;;4948456;29;20035;-77
2022/04/06 14:42:06;;;;;;;2.88;2.38;;;;;;;;;;4950294;29;20035;-77
2022/04/06 14:44:32;;;;;;;3.85;2.65;;;;;;;;;;4951457;29;20033;-76
2022/04/06 14:46:59;;;;;;;3.10;2.45;;;;;;;;;;4948746;29;20529;-76
2022/04/06 14:49:25;;;;;;;4.53;2.35;;;;;;;;;;4948436;28;20407;-76
2022/04/06 14:51:51;;;;;;;2.50;2.30;;;;;;;;;;4952321;29;20050;-76